Accueil
METAR-TAF:

METAR-TAF

Aéroports :

Aéroport Riviera Airport

Albenga, Italie

latitude: 44-03N, longitude: 008-07E, altitude: 45 m

Observation

Le bulletin a été fait il y a 6 heures et 29 minutes, à 16:50 UTC
Vent 3 kt de direction variable
Température 16°C
Humidité 94%
Pression 1026 hPa
Visibilité 10 km ou plus
Nuages fragmentés à une hauteur de 3000 ft

METAR: LIMG 121650Z VRB03KT 9999 BKN030 16/15 Q1026

Heure: 00:19 (23:19 UTC)


TAF: absent

Observations et prévisions météorologiques de plus de 4000 aéroports (messages METAR et TAF).

Les stations disponibles sont représentées par des disques jaunes et rouges sur la carte.

Passer la souris dessus pour voir le nom de la station.

Cliquer dessus pour voir les observations et prévisions météorologiques.

Pour changer de carte: cliquez sur les boutons verts avec une croix noire pour zoomer, sur le bouton vert avec un tiret pour effectuer un zoom arrière, ou sur les flèches vertes pour les cartes adjacentes.


METAR-TAF: